sensor_id;sensor_type;location;lat;lon;timestamp;pressure;altitude;pressure_sealevel;temperature;humidity
11888;BME280;6003;42.756;23.130;2023-08-17T00:00:18;157446.09;;;19.49;100.00
11888;BME280;6003;42.756;23.130;2023-08-17T00:02:45;157438.09;;;19.46;100.00
11888;BME280;6003;42.756;23.130;2023-08-17T00:05:12;157430.13;;;19.43;100.00
11888;BME280;6003;42.756;23.130;2023-08-17T00:07:39;157438.09;;;19.46;100.00
11888;BME280;6003;42.756;23.130;2023-08-17T00:10:06;157435.41;;;19.45;100.00
11888;BME280;6003;42.756;23.130;2023-08-17T00:12:33;157423.47;;;19.40;100.00
11888;BME280;6003;42.756;23.130;2023-08-17T00:15:00;157410.16;;;19.35;100.00
11888;BME280;6003;42.756;23.130;2023-08-17T00:17:28;157418.13;;;19.38;100.00
11888;BME280;6003;42.756;23.130;2023-08-17T00:19:55;157411.47;;;19.35;100.00
11888;BME280;6003;42.756;23.130;2023-08-17T00:22:22;157396.84;;;19.30;100.00
11888;BME280;6003;42.756;23.130;2023-08-17T00:24:49;157379.56;;;19.23;100.00
11888;BME280;6003;42.756;23.130;2023-08-17T00:27:15;157379.56;;;19.23;100.00
11888;BME280;6003;42.756;23.130;2023-08-17T00:29:42;157375.53;;;19.22;100.00
11888;BME280;6003;42.756;23.130;2023-08-17T00:32:09;157358.25;;;19.15;100.00
11888;BME280;6003;42.756;23.130;2023-08-17T00:34:37;157358.25;;;19.15;100.00
11888;BME280;6003;42.756;23.130;2023-08-17T00:37:04;157366.25;;;19.18;100.00
11888;BME280;6003;42.756;23.130;2023-08-17T00:39:31;157342.31;;;19.09;100.00
11888;BME280;6003;42.756;23.130;2023-08-17T00:41:57;157341.00;;;19.08;100.00
11888;BME280;6003;42.756;23.130;2023-08-17T00:44:24;157342.31;;;19.09;100.00
11888;BME280;6003;42.756;23.130;2023-08-17T00:46:51;157331.69;;;19.05;100.00
11888;BME280;6003;42.756;23.130;2023-08-17T00:49:18;157330.31;;;19.04;100.00
11888;BME280;6003;42.756;23.130;2023-08-17T00:51:46;157319.69;;;19.00;100.00
11888;BME280;6003;42.756;23.130;2023-08-17T00:54:13;157314.38;;;18.98;100.00
11888;BME280;6003;42.756;23.130;2023-08-17T00:56:44;157310.41;;;18.97;100.00
11888;BME280;6003;42.756;23.130;2023-08-17T00:59:10;157289.09;;;18.88;100.00
11888;BME280;6003;42.756;23.130;2023-08-17T01:01:37;157281.13;;;18.85;100.00
11888;BME280;6003;42.756;23.130;2023-08-17T01:04:04;157279.81;;;18.85;100.00
11888;BME280;6003;42.756;23.130;2023-08-17T01:06:31;157275.81;;;18.83;100.00
11888;BME280;6003;42.756;23.130;2023-08-17T01:08:59;157270.47;;;18.81;100.00
11888;BME280;6003;42.756;23.130;2023-08-17T01:11:31;157262.50;;;18.78;100.00
11888;BME280;6003;42.756;23.130;2023-08-17T01:14:04;157251.88;;;18.74;100.00
11888;BME280;6003;42.756;23.130;2023-08-17T01:16:37;157251.88;;;18.74;100.00
11888;BME280;6003;42.756;23.130;2023-08-17T01:19:08;157251.88;;;18.74;100.00
11888;BME280;6003;42.756;23.130;2023-08-17T01:21:38;157237.19;;;18.68;100.00
11888;BME280;6003;42.756;23.130;2023-08-17T01:24:10;157222.56;;;18.63;100.00
11888;BME280;6003;42.756;23.130;2023-08-17T01:26:37;157219.91;;;18.62;100.00
11888;BME280;6003;42.756;23.130;2023-08-17T01:29:04;157211.94;;;18.59;100.00
11888;BME280;6003;42.756;23.130;2023-08-17T01:31:36;157198.63;;;18.54;100.00
11888;BME280;6003;42.756;23.130;2023-08-17T01:34:08;157185.31;;;18.48;100.00
11888;BME280;6003;42.756;23.130;2023-08-17T01:36:41;157185.31;;;18.48;100.00
11888;BME280;6003;42.756;23.130;2023-08-17T01:39:11;157182.69;;;18.47;100.00
11888;BME280;6003;42.756;23.130;2023-08-17T01:41:41;157170.69;;;18.43;100.00
11888;BME280;6003;42.756;23.130;2023-08-17T01:44:08;157156.06;;;18.37;100.00
11888;BME280;6003;42.756;23.130;2023-08-17T01:46:35;157149.41;;;18.35;100.00
11888;BME280;6003;42.756;23.130;2023-08-17T01:49:02;157146.78;;;18.34;100.00
11888;BME280;6003;42.756;23.130;2023-08-17T01:51:29;157134.78;;;18.29;100.00
11888;BME280;6003;42.756;23.130;2023-08-17T01:53:56;157150.75;;;18.35;100.00
11888;BME280;6003;42.756;23.130;2023-08-17T01:56:24;157137.50;;;18.30;100.00
11888;BME280;6003;42.756;23.130;2023-08-17T01:58:50;157118.84;;;18.23;100.00
11888;BME280;6003;42.756;23.130;2023-08-17T02:01:17;157100.25;;;18.16;100.00
11888;BME280;6003;42.756;23.130;2023-08-17T02:03:44;157102.91;;;18.17;100.00
11888;BME280;6003;42.756;23.130;2023-08-17T02:06:11;157097.56;;;18.15;100.00
11888;BME280;6003;42.756;23.130;2023-08-17T02:08:38;157082.94;;;18.09;100.00
11888;BME280;6003;42.756;23.130;2023-08-17T02:11:04;157077.66;;;18.07;100.00
11888;BME280;6003;42.756;23.130;2023-08-17T02:13:33;157060.34;;;18.00;100.00
11888;BME280;6003;42.756;23.130;2023-08-17T02:15:59;157069.69;;;18.04;100.00
11888;BME280;6003;42.756;23.130;2023-08-17T02:18:26;157060.34;;;18.00;100.00
11888;BME280;6003;42.756;23.130;2023-08-17T02:20:56;157060.34;;;18.00;100.00
11888;BME280;6003;42.756;23.130;2023-08-17T02:23:23;157060.34;;;18.00;100.00
11888;BME280;6003;42.756;23.130;2023-08-17T02:25:50;157052.38;;;17.97;100.00
11888;BME280;6003;42.756;23.130;2023-08-17T02:28:16;157047.09;;;17.95;100.00
11888;BME280;6003;42.756;23.130;2023-08-17T02:30:45;157047.09;;;17.95;100.00
11888;BME280;6003;42.756;23.130;2023-08-17T02:33:13;157055.06;;;17.98;100.00
11888;BME280;6003;42.756;23.130;2023-08-17T02:35:40;157049.75;;;17.96;100.00
11888;BME280;6003;42.756;23.130;2023-08-17T02:38:06;157047.09;;;17.95;100.00
11888;BME280;6003;42.756;23.130;2023-08-17T02:40:33;157044.41;;;17.94;100.00
11888;BME280;6003;42.756;23.130;2023-08-17T02:43:00;157041.75;;;17.93;100.00
11888;BME280;6003;42.756;23.130;2023-08-17T02:45:27;157039.06;;;17.92;100.00
11888;BME280;6003;42.756;23.130;2023-08-17T02:47:55;157035.13;;;17.91;100.00
11888;BME280;6003;42.756;23.130;2023-08-17T02:50:22;157031.09;;;17.89;100.00
11888;BME280;6003;42.756;23.130;2023-08-17T02:52:49;157019.16;;;17.85;100.00
11888;BME280;6003;42.756;23.130;2023-08-17T02:55:16;157015.16;;;17.83;100.00
11888;BME280;6003;42.756;23.130;2023-08-17T02:57:42;157023.13;;;17.86;100.00
11888;BME280;6003;42.756;23.130;2023-08-17T03:00:10;157025.81;;;17.87;100.00
11888;BME280;6003;42.756;23.130;2023-08-17T03:02:37;157021.81;;;17.86;100.00
11888;BME280;6003;42.756;23.130;2023-08-17T03:05:06;157017.84;;;17.84;100.00
11888;BME280;6003;42.756;23.130;2023-08-17T03:07:33;157025.81;;;17.87;100.00
11888;BME280;6003;42.756;23.130;2023-08-17T03:09:59;157027.16;;;17.88;100.00
11888;BME280;6003;42.756;23.130;2023-08-17T03:12:26;157028.47;;;17.88;100.00
11888;BME280;6003;42.756;23.130;2023-08-17T03:14:53;157021.81;;;17.86;100.00
11888;BME280;6003;42.756;23.130;2023-08-17T03:17:20;157017.84;;;17.84;100.00
11888;BME280;6003;42.756;23.130;2023-08-17T03:19:46;157007.19;;;17.80;100.00
11888;BME280;6003;42.756;23.130;2023-08-17T03:22:15;157001.84;;;17.78;100.00
11888;BME280;6003;42.756;23.130;2023-08-17T03:24:41;156996.53;;;17.76;100.00
11888;BME280;6003;42.756;23.130;2023-08-17T03:27:08;157000.50;;;17.77;100.00
11888;BME280;6003;42.756;23.130;2023-08-17T03:29:35;156993.84;;;17.75;100.00
11888;BME280;6003;42.756;23.130;2023-08-17T03:32:02;156995.22;;;17.75;100.00
11888;BME280;6003;42.756;23.130;2023-08-17T03:34:29;156992.53;;;17.74;100.00
11888;BME280;6003;42.756;23.130;2023-08-17T03:36:55;156988.56;;;17.73;100.00
11888;BME280;6003;42.756;23.130;2023-08-17T03:39:24;156977.91;;;17.69;100.00
11888;BME280;6003;42.756;23.130;2023-08-17T03:41:50;156989.88;;;17.73;100.00
11888;BME280;6003;42.756;23.130;2023-08-17T03:44:17;156989.88;;;17.73;100.00
11888;BME280;6003;42.756;23.130;2023-08-17T03:46:44;156999.16;;;17.77;100.00
11888;BME280;6003;42.756;23.130;2023-08-17T03:49:11;156999.16;;;17.77;100.00
11888;BME280;6003;42.756;23.130;2023-08-17T03:51:38;156993.84;;;17.75;100.00
11888;BME280;6003;42.756;23.130;2023-08-17T03:54:04;157000.50;;;17.77;100.00
11888;BME280;6003;42.756;23.130;2023-08-17T03:56:32;157012.53;;;17.82;100.00
11888;BME280;6003;42.756;23.130;2023-08-17T03:58:59;157005.88;;;17.79;100.00
11888;BME280;6003;42.756;23.130;2023-08-17T04:01:26;157015.16;;;17.83;100.00
11888;BME280;6003;42.756;23.130;2023-08-17T04:03:53;157024.50;;;17.87;100.00
11888;BME280;6003;42.756;23.130;2023-08-17T04:06:20;157044.41;;;17.94;100.00
11888;BME280;6003;42.756;23.130;2023-08-17T04:08:47;157057.72;;;17.99;100.00
11888;BME280;6003;42.756;23.130;2023-08-17T04:11:13;157074.97;;;18.06;100.00
11888;BME280;6003;42.756;23.130;2023-08-17T04:13:41;157089.59;;;18.12;100.00
11888;BME280;6003;42.756;23.130;2023-08-17T04:16:08;157106.91;;;18.18;100.00
11888;BME280;6003;42.756;23.130;2023-08-17T04:18:35;157120.16;;;18.23;100.00
11888;BME280;6003;42.756;23.130;2023-08-17T04:21:02;157142.75;;;18.32;100.00
11888;BME280;6003;42.756;23.130;2023-08-17T04:23:29;157178.69;;;18.46;100.00
11888;BME280;6003;42.756;23.130;2023-08-17T04:25:56;157211.94;;;18.59;100.00
11888;BME280;6003;42.756;23.130;2023-08-17T04:28:22;157249.19;;;18.73;100.00
11888;BME280;6003;42.756;23.130;2023-08-17T04:30:51;157286.47;;;18.87;100.00
11888;BME280;6003;42.756;23.130;2023-08-17T04:33:18;157315.69;;;18.99;100.00
11888;BME280;6003;42.756;23.130;2023-08-17T04:35:46;157347.66;;;19.11;100.00
11888;BME280;6003;42.756;23.130;2023-08-17T04:38:13;157392.88;;;19.28;100.00
11888;BME280;6003;42.756;23.130;2023-08-17T04:40:40;157549.94;;;19.89;100.00
11888;BME280;6003;42.756;23.130;2023-08-17T04:43:07;157849.56;;;21.04;100.00
11888;BME280;6003;42.756;23.130;2023-08-17T04:45:33;158113.44;;;22.05;92.97
11888;BME280;6003;42.756;23.130;2023-08-17T04:48:02;158312.13;;;22.81;87.13
11888;BME280;6003;42.756;23.130;2023-08-17T04:50:29;158437.56;;;23.29;84.78
11888;BME280;6003;42.756;23.130;2023-08-17T04:52:55;158569.72;;;23.80;81.37
11888;BME280;6003;42.756;23.130;2023-08-17T04:55:22;158667.16;;;24.17;79.54
11888;BME280;6003;42.756;23.130;2023-08-17T04:57:49;158784.66;;;24.62;77.93
11888;BME280;6003;42.756;23.130;2023-08-17T05:00:16;158846.06;;;24.86;76.07
11888;BME280;6003;42.756;23.130;2023-08-17T05:02:45;158971.69;;;25.34;74.09
11888;BME280;6003;42.756;23.130;2023-08-17T05:05:13;158931.63;;;25.18;74.07
11888;BME280;6003;42.756;23.130;2023-08-17T05:07:40;158985.03;;;25.39;72.97
11888;BME280;6003;42.756;23.130;2023-08-17T05:10:07;159160.09;;;26.06;71.45
11888;BME280;6003;42.756;23.130;2023-08-17T05:12:34;159113.34;;;25.88;71.83
11888;BME280;6003;42.756;23.130;2023-08-17T05:15:01;159284.47;;;26.53;71.06
11888;BME280;6003;42.756;23.130;2023-08-17T05:17:28;159273.72;;;26.49;69.84
11888;BME280;6003;42.756;23.130;2023-08-17T05:19:54;159372.69;;;26.87;68.23
11888;BME280;6003;42.756;23.130;2023-08-17T05:22:22;159399.44;;;26.97;68.30
11888;BME280;6003;42.756;23.130;2023-08-17T05:24:49;159345.97;;;26.77;67.81
11888;BME280;6003;42.756;23.130;2023-08-17T05:27:16;159320.59;;;26.67;68.84
11888;BME280;6003;42.756;23.130;2023-08-17T05:29:43;159420.84;;;27.06;68.17
11888;BME280;6003;42.756;23.130;2023-08-17T05:32:10;159126.72;;;25.93;71.28
11888;BME280;6003;42.756;23.130;2023-08-17T05:34:36;159208.25;;;26.24;72.45
11888;BME280;6003;42.756;23.130;2023-08-17T05:37:03;159234.97;;;26.34;71.80
11888;BME280;6003;42.756;23.130;2023-08-17T05:39:31;159367.38;;;26.85;68.49
11888;BME280;6003;42.756;23.130;2023-08-17T05:41:58;159284.47;;;26.53;69.38
11888;BME280;6003;42.756;23.130;2023-08-17T05:44:25;159228.25;;;26.32;70.15
11888;BME280;6003;42.756;23.130;2023-08-17T05:46:52;159391.44;;;26.94;69.56
11888;BME280;6003;42.756;23.130;2023-08-17T05:49:19;159541.28;;;27.52;68.36
11888;BME280;6003;42.756;23.130;2023-08-17T05:51:46;159491.75;;;27.33;69.46
11888;BME280;6003;42.756;23.130;2023-08-17T05:54:13;159423.50;;;27.07;69.96
11888;BME280;6003;42.756;23.130;2023-08-17T05:56:41;159519.84;;;27.43;68.34
11888;BME280;6003;42.756;23.130;2023-08-17T05:59:12;159665.72;;;27.99;66.46
11888;BME280;6003;42.756;23.130;2023-08-17T06:01:39;159754.03;;;28.33;65.51
11888;BME280;6003;42.756;23.130;2023-08-17T06:04:06;159837.06;;;28.65;64.99
11888;BME280;6003;42.756;23.130;2023-08-17T06:06:33;159778.16;;;28.42;65.22
11888;BME280;6003;42.756;23.130;2023-08-17T06:09:00;159760.72;;;28.35;65.32
11888;BME280;6003;42.756;23.130;2023-08-17T06:11:27;159693.81;;;28.10;67.06
11888;BME280;6003;42.756;23.130;2023-08-17T06:13:55;159787.56;;;28.46;65.29
11888;BME280;6003;42.756;23.130;2023-08-17T06:16:22;159763.38;;;28.37;66.40
11888;BME280;6003;42.756;23.130;2023-08-17T06:18:49;159921.38;;;28.97;63.45
11888;BME280;6003;42.756;23.130;2023-08-17T06:21:16;159808.94;;;28.54;65.20
11888;BME280;6003;42.756;23.130;2023-08-17T06:23:43;159796.94;;;28.49;64.87
11888;BME280;6003;42.756;23.130;2023-08-17T06:26:10;159865.19;;;28.75;64.89
11888;BME280;6003;42.756;23.130;2023-08-17T06:28:37;159948.25;;;29.07;64.36
11888;BME280;6003;42.756;23.130;2023-08-17T06:31:05;159885.28;;;28.83;64.42
11888;BME280;6003;42.756;23.130;2023-08-17T06:33:32;159883.91;;;28.83;65.37
11888;BME280;6003;42.756;23.130;2023-08-17T06:35:59;159774.13;;;28.41;65.58
11888;BME280;6003;42.756;23.130;2023-08-17T06:38:26;159543.94;;;27.53;68.08
11888;BME280;6003;42.756;23.130;2023-08-17T06:40:52;159444.91;;;27.15;70.74
11888;BME280;6003;42.756;23.130;2023-08-17T06:43:21;159442.25;;;27.14;70.10
11888;BME280;6003;42.756;23.130;2023-08-17T06:45:48;159511.84;;;27.40;72.16
11888;BME280;6003;42.756;23.130;2023-08-17T06:48:16;159574.69;;;27.64;68.98
11888;BME280;6003;42.756;23.130;2023-08-17T06:50:43;159602.78;;;27.75;68.88
11888;BME280;6003;42.756;23.130;2023-08-17T06:53:10;159550.63;;;27.55;69.93
11888;BME280;6003;42.756;23.130;2023-08-17T06:55:36;159550.63;;;27.55;69.59
11888;BME280;6003;42.756;23.130;2023-08-17T06:58:03;159556.00;;;27.57;67.98
11888;BME280;6003;42.756;23.130;2023-08-17T07:00:30;159452.97;;;27.18;69.98
11888;BME280;6003;42.756;23.130;2023-08-17T07:02:57;159307.22;;;26.62;70.60
11888;BME280;6003;42.756;23.130;2023-08-17T07:05:26;159418.19;;;27.05;71.41
11888;BME280;6003;42.756;23.130;2023-08-17T07:07:52;159477.03;;;27.27;69.48
11888;BME280;6003;42.756;23.130;2023-08-17T07:10:20;159574.69;;;27.64;69.65
11888;BME280;6003;42.756;23.130;2023-08-17T07:12:47;159642.97;;;27.90;68.10
11888;BME280;6003;42.756;23.130;2023-08-17T07:15:14;159672.41;;;28.02;69.28
11888;BME280;6003;42.756;23.130;2023-08-17T07:17:41;159685.78;;;28.07;66.30
11888;BME280;6003;42.756;23.130;2023-08-17T07:20:08;159691.16;;;28.09;66.02
11888;BME280;6003;42.756;23.130;2023-08-17T07:22:38;159707.22;;;28.15;66.31
11888;BME280;6003;42.756;23.130;2023-08-17T07:25:05;159725.91;;;28.22;65.25
11888;BME280;6003;42.756;23.130;2023-08-17T07:27:34;159770.09;;;28.39;63.12
11888;BME280;6003;42.756;23.130;2023-08-17T07:30:00;159768.75;;;28.39;63.00
11888;BME280;6003;42.756;23.130;2023-08-17T07:32:27;159697.84;;;28.11;58.32
11888;BME280;6003;42.756;23.130;2023-08-17T07:34:54;159651.00;;;27.94;57.26
11888;BME280;6003;42.756;23.130;2023-08-17T07:37:21;159717.91;;;28.19;59.96
11888;BME280;6003;42.756;23.130;2023-08-17T07:39:49;159814.31;;;28.56;56.22
11888;BME280;6003;42.756;23.130;2023-08-17T07:42:16;159798.25;;;28.50;57.06
11888;BME280;6003;42.756;23.130;2023-08-17T07:44:42;159837.06;;;28.65;56.04
11888;BME280;6003;42.756;23.130;2023-08-17T07:47:09;159871.88;;;28.78;57.36
11888;BME280;6003;42.756;23.130;2023-08-17T07:49:36;159790.22;;;28.47;55.46
11888;BME280;6003;42.756;23.130;2023-08-17T07:52:03;159787.56;;;28.46;58.39
11888;BME280;6003;42.756;23.130;2023-08-17T07:54:30;159839.78;;;28.66;56.46
11888;BME280;6003;42.756;23.130;2023-08-17T07:56:58;159833.06;;;28.63;55.55
11888;BME280;6003;42.756;23.130;2023-08-17T07:59:25;159800.91;;;28.51;54.47
11888;BME280;6003;42.756;23.130;2023-08-17T08:01:52;159790.22;;;28.47;54.65
11888;BME280;6003;42.756;23.130;2023-08-17T08:04:19;159838.41;;;28.65;56.91
11888;BME280;6003;42.756;23.130;2023-08-17T08:06:46;159795.59;;;28.49;54.97
11888;BME280;6003;42.756;23.130;2023-08-17T08:09:12;159830.38;;;28.62;54.36
11888;BME280;6003;42.756;23.130;2023-08-17T08:11:39;159731.28;;;28.24;55.25
11888;BME280;6003;42.756;23.130;2023-08-17T08:14:07;159764.78;;;28.37;55.87
11888;BME280;6003;42.756;23.130;2023-08-17T08:16:34;159853.13;;;28.71;56.48
11888;BME280;6003;42.756;23.130;2023-08-17T08:19:01;159787.56;;;28.46;54.78
11888;BME280;6003;42.756;23.130;2023-08-17T08:21:28;159724.59;;;28.22;55.09
11888;BME280;6003;42.756;23.130;2023-08-17T08:23:54;159783.53;;;28.44;55.94
11888;BME280;6003;42.756;23.130;2023-08-17T08:26:21;159849.13;;;28.69;55.35
11888;BME280;6003;42.756;23.130;2023-08-17T08:28:48;159918.72;;;28.96;55.34
11888;BME280;6003;42.756;23.130;2023-08-17T08:31:16;159924.09;;;28.98;56.23
11888;BME280;6003;42.756;23.130;2023-08-17T08:33:43;159916.06;;;28.95;54.07
11888;BME280;6003;42.756;23.130;2023-08-17T08:36:10;159897.31;;;28.88;54.89
11888;BME280;6003;42.756;23.130;2023-08-17T08:38:37;159847.81;;;28.69;54.64
11888;BME280;6003;42.756;23.130;2023-08-17T08:41:05;159807.63;;;28.53;53.10
11888;BME280;6003;42.756;23.130;2023-08-17T08:43:34;159788.91;;;28.46;54.78
11888;BME280;6003;42.756;23.130;2023-08-17T08:46:01;159855.84;;;28.72;54.89
11888;BME280;6003;42.756;23.130;2023-08-17T08:48:31;159867.84;;;28.76;53.76
11888;BME280;6003;42.756;23.130;2023-08-17T08:51:00;159890.59;;;28.85;53.81
11888;BME280;6003;42.756;23.130;2023-08-17T08:53:32;159900.00;;;28.89;51.41
11888;BME280;6003;42.756;23.130;2023-08-17T08:56:03;159894.66;;;28.87;50.69
11888;BME280;6003;42.756;23.130;2023-08-17T08:58:31;159843.75;;;28.67;51.45
11888;BME280;6003;42.756;23.130;2023-08-17T09:01:00;159811.66;;;28.55;51.45
11888;BME280;6003;42.756;23.130;2023-08-17T09:03:31;159812.97;;;28.55;52.32
11888;BME280;6003;42.756;23.130;2023-08-17T09:05:59;159866.53;;;28.76;52.33
11888;BME280;6003;42.756;23.130;2023-08-17T09:08:28;159940.22;;;29.04;51.34
11888;BME280;6003;42.756;23.130;2023-08-17T09:10:55;159937.50;;;29.03;52.10
11888;BME280;6003;42.756;23.130;2023-08-17T09:13:22;159966.97;;;29.14;51.58
11888;BME280;6003;42.756;23.130;2023-08-17T09:15:49;159942.88;;;29.05;51.24
11888;BME280;6003;42.756;23.130;2023-08-17T09:18:16;159930.81;;;29.00;49.48
11888;BME280;6003;42.756;23.130;2023-08-17T09:20:46;159993.75;;;29.24;49.98
11888;BME280;6003;42.756;23.130;2023-08-17T09:23:14;159991.09;;;29.23;51.24
11888;BME280;6003;42.756;23.130;2023-08-17T09:25:42;160013.88;;;29.32;50.18
11888;BME280;6003;42.756;23.130;2023-08-17T09:28:10;160079.44;;;29.57;50.90
11888;BME280;6003;42.756;23.130;2023-08-17T09:30:52;160052.69;;;29.47;49.72
11888;BME280;6003;42.756;23.130;2023-08-17T09:33:20;160060.72;;;29.50;51.11
11888;BME280;6003;42.756;23.130;2023-08-17T09:35:48;160127.75;;;29.76;49.13
11888;BME280;6003;42.756;23.130;2023-08-17T09:38:15;160074.13;;;29.55;49.48
11888;BME280;6003;42.756;23.130;2023-08-17T09:40:43;160079.44;;;29.57;49.28
11888;BME280;6003;42.756;23.130;2023-08-17T09:43:10;160009.81;;;29.31;48.33
11888;BME280;6003;42.756;23.130;2023-08-17T09:45:37;160032.59;;;29.39;48.73
11888;BME280;6003;42.756;23.130;2023-08-17T09:48:05;160004.44;;;29.29;47.87
11888;BME280;6003;42.756;23.130;2023-08-17T09:50:32;160007.16;;;29.30;48.02
11888;BME280;6003;42.756;23.130;2023-08-17T09:53:02;160048.66;;;29.45;48.34
11888;BME280;6003;42.756;23.130;2023-08-17T09:55:30;160130.41;;;29.77;46.35
11888;BME280;6003;42.756;23.130;2023-08-17T09:57:58;160146.47;;;29.83;45.68
11888;BME280;6003;42.756;23.130;2023-08-17T10:00:27;160157.22;;;29.87;46.70
11888;BME280;6003;42.756;23.130;2023-08-17T10:02:55;160194.72;;;30.01;47.63
11888;BME280;6003;42.756;23.130;2023-08-17T10:05:28;160151.84;;;29.85;46.19
11888;BME280;6003;42.756;23.130;2023-08-17T10:07:58;160157.22;;;29.87;47.35
11888;BME280;6003;42.756;23.130;2023-08-17T10:10:29;160218.81;;;30.10;46.05
11888;BME280;6003;42.756;23.130;2023-08-17T10:13:05;160229.53;;;30.14;45.14
11888;BME280;6003;42.756;23.130;2023-08-17T10:15:38;160237.56;;;30.18;45.46
11888;BME280;6003;42.756;23.130;2023-08-17T10:18:15;160342.13;;;30.57;47.47
11888;BME280;6003;42.756;23.130;2023-08-17T10:20:51;160351.50;;;30.61;47.44
11888;BME280;6003;42.756;23.130;2023-08-17T10:23:23;160281.81;;;30.34;46.28
11888;BME280;6003;42.756;23.130;2023-08-17T10:25:52;160238.88;;;30.18;46.03
11888;BME280;6003;42.756;23.130;2023-08-17T10:28:20;160229.53;;;30.14;45.16
11888;BME280;6003;42.756;23.130;2023-08-17T10:30:48;160240.25;;;30.19;45.78
11888;BME280;6003;42.756;23.130;2023-08-17T10:33:17;160213.44;;;30.08;45.04
11888;BME280;6003;42.756;23.130;2023-08-17T10:35:45;160209.47;;;30.07;45.78
11888;BME280;6003;42.756;23.130;2023-08-17T10:38:13;160251.00;;;30.23;47.54
11888;BME280;6003;42.756;23.130;2023-08-17T10:40:42;160313.97;;;30.47;46.74
11888;BME280;6003;42.756;23.130;2023-08-17T10:43:10;160320.69;;;30.49;48.03
11888;BME280;6003;42.756;23.130;2023-08-17T10:45:38;160362.25;;;30.65;45.43
11888;BME280;6003;42.756;23.130;2023-08-17T10:48:27;160364.91;;;30.66;43.78
11888;BME280;6003;42.756;23.130;2023-08-17T10:51:02;160366.22;;;30.67;44.50
11888;BME280;6003;42.756;23.130;2023-08-17T10:53:34;160339.47;;;30.56;44.36
11888;BME280;6003;42.756;23.130;2023-08-17T10:56:06;160249.69;;;30.22;44.72
11888;BME280;6003;42.756;23.130;2023-08-17T10:58:36;160251.00;;;30.23;45.30
11888;BME280;6003;42.756;23.130;2023-08-17T11:01:03;160261.75;;;30.27;45.07
11888;BME280;6003;42.756;23.130;2023-08-17T11:03:30;160312.63;;;30.46;45.43
11888;BME280;6003;42.756;23.130;2023-08-17T11:05:57;160330.09;;;30.53;44.37
11888;BME280;6003;42.756;23.130;2023-08-17T11:08:28;160315.34;;;30.47;44.06
11888;BME280;6003;42.756;23.130;2023-08-17T11:11:01;160315.34;;;30.47;43.92
11888;BME280;6003;42.756;23.130;2023-08-17T11:13:30;160275.13;;;30.32;43.59
11888;BME280;6003;42.756;23.130;2023-08-17T11:16:01;160304.59;;;30.43;46.19
11888;BME280;6003;42.756;23.130;2023-08-17T11:18:28;160382.38;;;30.73;47.10
11888;BME280;6003;42.756;23.130;2023-08-17T11:20:55;160403.81;;;30.81;43.39
11888;BME280;6003;42.756;23.130;2023-08-17T11:23:22;160376.97;;;30.71;43.93
11888;BME280;6003;42.756;23.130;2023-08-17T11:25:52;160407.84;;;30.83;45.44
11888;BME280;6003;42.756;23.130;2023-08-17T11:28:19;160430.63;;;30.91;48.04
11888;BME280;6003;42.756;23.130;2023-08-17T11:30:46;160440.00;;;30.95;47.53
11888;BME280;6003;42.756;23.130;2023-08-17T11:33:25;160389.00;;;30.75;45.68
11888;BME280;6003;42.756;23.130;2023-08-17T11:35:54;160350.16;;;30.61;47.71
11888;BME280;6003;42.756;23.130;2023-08-17T11:38:20;160339.47;;;30.56;45.47
11888;BME280;6003;42.756;23.130;2023-08-17T11:40:48;160340.78;;;30.57;45.38
11888;BME280;6003;42.756;23.130;2023-08-17T11:43:15;160279.16;;;30.33;47.41
11888;BME280;6003;42.756;23.130;2023-08-17T11:45:42;160291.19;;;30.38;47.50
11888;BME280;6003;42.756;23.130;2023-08-17T11:48:08;160327.38;;;30.52;46.71
11888;BME280;6003;42.756;23.130;2023-08-17T11:50:37;160312.63;;;30.46;46.65
11888;BME280;6003;42.756;23.130;2023-08-17T11:53:04;160271.13;;;30.30;47.16
11888;BME280;6003;42.756;23.130;2023-08-17T11:55:32;160328.72;;;30.52;48.10
11888;BME280;6003;42.756;23.130;2023-08-17T11:57:58;160355.53;;;30.63;48.10
11888;BME280;6003;42.756;23.130;2023-08-17T12:00:25;160391.72;;;30.76;47.95
11888;BME280;6003;42.756;23.130;2023-08-17T12:02:52;160430.63;;;30.91;49.67
11888;BME280;6003;42.756;23.130;2023-08-17T12:05:20;160382.38;;;30.73;47.62
11888;BME280;6003;42.756;23.130;2023-08-17T12:07:50;160422.59;;;30.88;48.85
11888;BME280;6003;42.756;23.130;2023-08-17T12:10:18;160414.56;;;30.85;47.96
11888;BME280;6003;42.756;23.130;2023-08-17T12:12:46;160307.31;;;30.44;47.01
11888;BME280;6003;42.756;23.130;2023-08-17T12:15:13;160299.22;;;30.41;48.17
11888;BME280;6003;42.756;23.130;2023-08-17T12:17:44;160374.28;;;30.70;49.05
11888;BME280;6003;42.756;23.130;2023-08-17T12:20:15;160374.28;;;30.70;46.07
11888;BME280;6003;42.756;23.130;2023-08-17T12:22:43;160326.06;;;30.51;47.67
11888;BME280;6003;42.756;23.130;2023-08-17T12:25:11;160385.03;;;30.74;47.70
11888;BME280;6003;42.756;23.130;2023-08-17T12:27:38;160409.19;;;30.83;48.98
11888;BME280;6003;42.756;23.130;2023-08-17T12:30:11;160312.63;;;30.46;47.80
11888;BME280;6003;42.756;23.130;2023-08-17T12:32:38;160200.03;;;30.03;49.20
11888;BME280;6003;42.756;23.130;2023-08-17T12:35:06;160265.75;;;30.28;49.32
11888;BME280;6003;42.756;23.130;2023-08-17T12:37:33;160244.25;;;30.20;48.59
11888;BME280;6003;42.756;23.130;2023-08-17T12:40:00;160288.53;;;30.37;48.73
11888;BME280;6003;42.756;23.130;2023-08-17T12:42:28;160318.00;;;30.48;50.00
11888;BME280;6003;42.756;23.130;2023-08-17T12:44:55;160378.31;;;30.71;50.50
11888;BME280;6003;42.756;23.130;2023-08-17T12:47:22;160391.72;;;30.76;48.22